createdAt,value
2023-03-26T00:01:40.626Z,9.12
2023-03-26T00:04:08.545Z,9.09
2023-03-26T00:06:39.651Z,9.07
2023-03-26T00:09:10.382Z,8.96
2023-03-26T00:11:37.761Z,8.97
2023-03-26T00:14:05.813Z,9.16
2023-03-26T00:16:34.014Z,9.18
2023-03-26T00:19:02.655Z,9.23
2023-03-26T00:21:31.462Z,9.24
2023-03-26T00:24:04.537Z,9.10
2023-03-26T00:26:38.564Z,9.02
2023-03-26T00:29:08.366Z,9.24
2023-03-26T00:31:37.994Z,9.39
2023-03-26T00:34:06.132Z,9.39
2023-03-26T00:36:35.993Z,9.48
2023-03-26T00:39:06.325Z,9.36
2023-03-26T00:41:37.323Z,9.26
2023-03-26T00:44:05.606Z,9.11
2023-03-26T00:46:32.904Z,9.15
2023-03-26T00:49:01.931Z,8.93
2023-03-26T00:51:29.656Z,9.09
2023-03-26T00:53:58.052Z,9.05
2023-03-26T00:56:26.217Z,9.00
2023-03-26T00:58:53.900Z,9.10
2023-03-26T01:01:29.320Z,9.17
2023-03-26T01:04:07.580Z,9.21
2023-03-26T01:06:42.240Z,9.23
2023-03-26T01:09:21.125Z,9.30
2023-03-26T01:11:49.621Z,9.23
2023-03-26T01:14:24.452Z,9.41
2023-03-26T01:16:55.215Z,9.43
2023-03-26T01:19:47.634Z,9.32
2023-03-26T01:22:21.375Z,9.36
2023-03-26T01:24:58.690Z,9.19
2023-03-26T01:27:50.292Z,9.01
2023-03-26T01:30:31.080Z,8.96
2023-03-26T01:33:36.691Z,8.90
2023-03-26T01:36:13.159Z,8.86
2023-03-26T01:39:09.777Z,8.80
2023-03-26T01:42:00.806Z,8.74
2023-03-26T01:44:41.620Z,8.58
2023-03-26T01:47:09.923Z,8.74
2023-03-26T01:49:37.155Z,8.78
2023-03-26T01:52:12.808Z,8.80
2023-03-26T01:54:41.379Z,8.74
2023-03-26T01:57:21.154Z,8.80
2023-03-26T02:00:14.242Z,8.80
2023-03-26T02:02:59.431Z,8.59
2023-03-26T02:05:45.008Z,8.46
2023-03-26T02:08:24.599Z,8.59
2023-03-26T02:10:57.669Z,8.62
2023-03-26T02:13:26.409Z,8.71
2023-03-26T02:16:02.969Z,8.75
2023-03-26T02:18:36.840Z,8.76
2023-03-26T02:21:06.857Z,8.89
2023-03-26T02:23:35.901Z,8.89
2023-03-26T02:26:07.307Z,9.05
2023-03-26T02:28:37.964Z,8.90
2023-03-26T02:31:06.006Z,8.72
2023-03-26T02:33:33.747Z,8.76
2023-03-26T02:36:04.678Z,8.77
2023-03-26T02:38:35.614Z,8.82
2023-03-26T02:41:04.595Z,8.92
2023-03-26T02:43:46.983Z,8.88
2023-03-26T02:46:17.051Z,8.81
2023-03-26T02:49:13.748Z,8.89
2023-03-26T02:51:43.167Z,8.90
2023-03-26T02:54:24.543Z,8.85
2023-03-26T02:56:56.940Z,8.90
2023-03-26T02:59:38.774Z,8.86
2023-03-26T03:02:29.336Z,8.80
2023-03-26T03:05:05.877Z,8.86
2023-03-26T03:07:38.012Z,9.00
2023-03-26T03:10:08.722Z,8.85
2023-03-26T03:12:59.611Z,8.91
2023-03-26T03:15:28.294Z,8.74
2023-03-26T03:17:55.703Z,8.77
2023-03-26T03:20:23.677Z,8.83
2023-03-26T03:22:51.004Z,8.83
2023-03-26T03:25:18.666Z,8.89
2023-03-26T03:27:48.001Z,8.97
2023-03-26T03:30:16.317Z,8.96
2023-03-26T03:32:46.822Z,8.94
2023-03-26T03:35:19.203Z,8.89
2023-03-26T03:37:50.541Z,8.88
2023-03-26T03:40:18.405Z,8.93
2023-03-26T03:42:47.002Z,8.87
2023-03-26T03:45:20.398Z,9.01
2023-03-26T03:48:01.619Z,9.13
2023-03-26T03:50:39.007Z,9.18
2023-03-26T03:53:26.551Z,9.12
2023-03-26T03:55:57.598Z,9.05
2023-03-26T03:58:36.980Z,9.10
2023-03-26T04:01:13.558Z,9.21
2023-03-26T04:03:55.275Z,9.23
2023-03-26T04:06:30.239Z,9.35
2023-03-26T04:08:57.548Z,9.37
2023-03-26T04:11:25.398Z,9.34
2023-03-26T04:14:12.951Z,9.41
2023-03-26T04:16:58.077Z,9.43
2023-03-26T04:19:27.496Z,9.45
2023-03-26T04:21:55.510Z,9.56
2023-03-26T04:24:24.592Z,9.53
2023-03-26T04:27:25.646Z,9.59
2023-03-26T04:29:53.153Z,9.60
2023-03-26T04:32:29.773Z,9.52
2023-03-26T04:35:00.963Z,9.41
2023-03-26T04:37:40.124Z,9.35
2023-03-26T04:40:30.653Z,9.39
2023-03-26T04:43:18.519Z,9.55
2023-03-26T04:46:18.565Z,9.58
2023-03-26T04:48:53.076Z,9.50
2023-03-26T04:51:24.375Z,9.57
2023-03-26T04:53:54.477Z,9.63
2023-03-26T04:56:27.702Z,9.59
2023-03-26T04:59:26.189Z,9.55
2023-03-26T05:01:56.935Z,9.54
2023-03-26T05:04:26.907Z,9.56
2023-03-26T05:06:54.256Z,9.65
2023-03-26T05:09:33.648Z,9.48
2023-03-26T05:12:21.666Z,9.43
2023-03-26T05:14:54.853Z,9.60
2023-03-26T05:17:35.091Z,9.73
2023-03-26T05:20:05.184Z,9.97
2023-03-26T05:22:36.610Z,10.01
2023-03-26T05:25:25.808Z,10.07
2023-03-26T05:27:53.909Z,10.23
2023-03-26T05:30:24.915Z,10.29
2023-03-26T05:32:56.929Z,10.33
2023-03-26T05:35:29.968Z,10.32
2023-03-26T05:37:57.823Z,10.20
2023-03-26T05:40:26.354Z,10.05
2023-03-26T05:43:02.709Z,10.03
2023-03-26T05:45:57.138Z,10.05
2023-03-26T05:48:28.089Z,9.74
2023-03-26T05:50:57.696Z,9.87
2023-03-26T05:53:28.081Z,10.01
2023-03-26T05:56:08.359Z,9.78
2023-03-26T05:58:55.770Z,10.07
2023-03-26T06:01:29.417Z,10.05
2023-03-26T06:04:18.288Z,10.38
2023-03-26T06:06:57.725Z,10.31
2023-03-26T06:09:25.441Z,10.65
2023-03-26T06:11:53.029Z,10.65
2023-03-26T06:14:20.881Z,10.96
2023-03-26T06:17:18.033Z,11.25
2023-03-26T06:20:20.883Z,11.51
2023-03-26T06:22:50.534Z,11.60
2023-03-26T06:25:48.448Z,11.90
2023-03-26T06:28:36.709Z,11.90
2023-03-26T06:31:27.381Z,12.05
2023-03-26T06:34:11.324Z,11.76
2023-03-26T06:36:38.730Z,12.09
2023-03-26T06:39:07.537Z,12.13
2023-03-26T06:41:37.512Z,12.41
2023-03-26T06:44:16.047Z,12.42
2023-03-26T06:47:18.731Z,11.62
2023-03-26T06:49:58.389Z,11.96
2023-03-26T06:52:48.535Z,12.40
2023-03-26T06:55:31.623Z,12.15
2023-03-26T06:58:06.631Z,12.17
2023-03-26T07:00:42.942Z,11.43
2023-03-26T07:03:29.603Z,11.63
2023-03-26T07:06:15.951Z,11.20
2023-03-26T07:09:02.171Z,10.97
2023-03-26T07:11:48.619Z,10.40
2023-03-26T07:14:51.901Z,10.34
2023-03-26T07:17:22.487Z,10.67
2023-03-26T07:19:54.768Z,10.64
2023-03-26T07:22:26.554Z,10.32
2023-03-26T07:25:14.118Z,10.56
2023-03-26T07:28:20.940Z,11.08
2023-03-26T07:31:34.949Z,11.71
2023-03-26T07:34:40.904Z,12.08
2023-03-26T07:37:38.401Z,12.01
2023-03-26T07:40:30.335Z,12.09
2023-03-26T07:44:03.675Z,11.37
2023-03-26T07:46:49.492Z,11.12
2023-03-26T07:49:32.884Z,11.00
2023-03-26T07:52:19.506Z,10.65
2023-03-26T07:55:07.389Z,10.69
2023-03-26T07:58:22.771Z,10.38
2023-03-26T08:01:19.091Z,10.40
2023-03-26T08:04:24.867Z,10.36
2023-03-26T08:07:45.157Z,10.33
2023-03-26T08:10:43.221Z,10.54
2023-03-26T08:13:38.953Z,10.32
2023-03-26T08:16:19.479Z,10.74
2023-03-26T08:19:08.021Z,11.67
2023-03-26T08:21:42.262Z,14.05
2023-03-26T08:24:22.992Z,14.77
2023-03-26T08:27:08.803Z,15.25
2023-03-26T08:30:02.271Z,14.86
2023-03-26T08:32:30.490Z,14.20
2023-03-26T08:35:00.189Z,13.77
2023-03-26T08:37:29.321Z,13.91
2023-03-26T08:39:57.153Z,13.70
2023-03-26T08:42:58.036Z,13.36
2023-03-26T08:45:58.615Z,11.73
2023-03-26T08:48:44.872Z,11.94
2023-03-26T08:51:18.278Z,11.74
2023-03-26T08:54:04.491Z,12.65
2023-03-26T08:56:54.330Z,13.23
2023-03-26T08:59:53.502Z,12.81
2023-03-26T09:02:53.624Z,13.84
2023-03-26T09:05:49.259Z,13.98
2023-03-26T09:08:54.292Z,13.51
2023-03-26T09:11:50.240Z,13.37
2023-03-26T09:14:45.387Z,13.88
2023-03-26T09:17:30.443Z,13.88
2023-03-26T09:20:26.522Z,13.40
2023-03-26T09:23:20.910Z,13.13
2023-03-26T09:26:12.717Z,13.22
2023-03-26T09:28:56.211Z,13.32
2023-03-26T09:32:03.617Z,12.07
2023-03-26T09:34:58.383Z,12.74
2023-03-26T09:37:26.707Z,12.69
2023-03-26T09:40:12.560Z,12.39
2023-03-26T09:43:02.771Z,12.48
2023-03-26T09:46:06.106Z,12.82
2023-03-26T09:48:42.518Z,13.18
2023-03-26T09:51:33.297Z,13.40
2023-03-26T09:54:25.413Z,12.64
2023-03-26T09:57:18.002Z,12.43
2023-03-26T10:00:20.981Z,12.57
2023-03-26T10:03:12.410Z,12.36
2023-03-26T10:05:41.513Z,11.75
2023-03-26T10:08:48.119Z,11.54
2023-03-26T10:11:56.884Z,11.09
2023-03-26T10:14:24.525Z,11.28
2023-03-26T10:17:13.516Z,11.06
2023-03-26T10:20:11.187Z,11.14
2023-03-26T10:22:54.185Z,11.14
2023-03-26T10:26:04.393Z,10.76
2023-03-26T10:28:50.703Z,10.80
2023-03-26T10:31:27.390Z,11.69
2023-03-26T10:34:29.423Z,11.73
2023-03-26T10:37:32.761Z,11.71
2023-03-26T10:40:19.282Z,13.96
2023-03-26T10:43:14.764Z,16.65
2023-03-26T10:46:13.578Z,17.24
2023-03-26T10:48:51.039Z,16.10
2023-03-26T10:51:24.240Z,15.52
2023-03-26T10:54:08.169Z,14.78
2023-03-26T10:56:45.418Z,14.01
2023-03-26T10:59:15.022Z,13.47
2023-03-26T11:02:05.973Z,12.93
2023-03-26T11:04:54.752Z,12.70
2023-03-26T11:07:31.924Z,11.87
2023-03-26T11:10:36.956Z,11.74
2023-03-26T11:13:24.438Z,11.09
2023-03-26T11:16:00.774Z,10.34
2023-03-26T11:18:45.155Z,11.05
2023-03-26T11:21:35.787Z,11.41
2023-03-26T11:24:35.408Z,10.93
2023-03-26T11:27:39.302Z,11.44
2023-03-26T11:30:25.731Z,11.09
2023-03-26T11:32:58.520Z,11.47
2023-03-26T11:35:58.458Z,11.19
2023-03-26T11:38:39.193Z,11.80
2023-03-26T11:41:26.940Z,12.30
2023-03-26T11:44:04.082Z,12.66
2023-03-26T11:46:35.514Z,12.76
2023-03-26T11:49:11.208Z,13.00
2023-03-26T11:51:43.210Z,12.61
2023-03-26T11:54:12.730Z,12.61
2023-03-26T11:57:04.937Z,12.36
2023-03-26T11:59:56.546Z,12.67
2023-03-26T12:02:32.359Z,11.80
2023-03-26T12:05:25.110Z,12.42
2023-03-26T12:07:56.876Z,12.34
2023-03-26T12:10:29.290Z,12.14
2023-03-26T12:13:02.685Z,12.48
2023-03-26T12:15:32.251Z,12.42
2023-03-26T12:18:19.871Z,12.51
2023-03-26T12:20:49.507Z,12.06
2023-03-26T12:23:36.935Z,12.04
2023-03-26T12:26:14.443Z,12.46
2023-03-26T12:28:47.124Z,12.30
2023-03-26T12:31:19.343Z,12.82
2023-03-26T12:34:14.100Z,12.18
2023-03-26T12:36:49.747Z,12.21
2023-03-26T12:40:07.133Z,12.43
2023-03-26T12:44:51.502Z,11.57
2023-03-26T12:45:22.208Z,11.54
2023-03-26T12:47:59.995Z,11.77
2023-03-26T12:50:45.689Z,11.83
2023-03-26T12:53:16.185Z,11.96
2023-03-26T12:55:58.710Z,12.57
2023-03-26T12:59:00.197Z,12.31
2023-03-26T13:02:06.278Z,11.91
2023-03-26T13:05:06.847Z,11.60
2023-03-26T13:08:12.670Z,12.13
2023-03-26T13:10:49.951Z,11.48
2023-03-26T13:13:37.648Z,11.09
2023-03-26T13:16:14.086Z,11.32
2023-03-26T13:18:52.766Z,11.64
2023-03-26T13:21:26.710Z,11.55
2023-03-26T13:24:00.700Z,11.55
2023-03-26T13:27:23.834Z,11.81
2023-03-26T13:30:16.274Z,11.25
2023-03-26T13:33:08.866Z,11.21
2023-03-26T13:36:23.295Z,11.15
2023-03-26T13:39:03.719Z,11.27
2023-03-26T13:41:37.819Z,11.42
2023-03-26T13:44:44.964Z,11.45
2023-03-26T13:47:18.708Z,11.05
2023-03-26T13:50:00.629Z,11.45
2023-03-26T13:52:40.287Z,11.22
2023-03-26T13:55:48.757Z,11.36
2023-03-26T13:58:49.233Z,11.30
2023-03-26T14:01:23.360Z,11.96
2023-03-26T14:03:54.008Z,11.16
2023-03-26T14:06:57.351Z,10.85
2023-03-26T14:09:31.509Z,11.12
2023-03-26T14:12:21.762Z,11.50
2023-03-26T14:15:11.718Z,10.95
2023-03-26T14:17:48.293Z,10.71
2023-03-26T14:20:19.997Z,10.29
2023-03-26T14:22:56.875Z,10.67
2023-03-26T14:25:30.718Z,10.63
2023-03-26T14:28:16.725Z,10.64
2023-03-26T14:30:54.570Z,10.59
2023-03-26T14:33:46.548Z,10.52
2023-03-26T14:36:43.127Z,10.16
2023-03-26T14:39:19.496Z,9.84
2023-03-26T14:41:59.224Z,9.93
2023-03-26T14:44:48.018Z,10.40
2023-03-26T14:47:17.964Z,10.17
2023-03-26T14:50:28.851Z,9.92
2023-03-26T14:53:01.206Z,10.25
2023-03-26T14:55:50.996Z,10.45
2023-03-26T14:58:55.846Z,10.18
2023-03-26T15:01:29.230Z,10.10
2023-03-26T15:04:45.069Z,10.03
2023-03-26T15:07:42.769Z,10.04
2023-03-26T15:10:28.438Z,10.10
2023-03-26T15:13:33.423Z,9.95
2023-03-26T15:16:21.847Z,9.72
2023-03-26T15:19:30.017Z,9.53
2023-03-26T15:22:03.129Z,9.56
2023-03-26T15:25:15.355Z,9.54
2023-03-26T15:27:52.980Z,9.44
2023-03-26T15:30:39.095Z,9.29
2023-03-26T15:33:43.882Z,9.57
2023-03-26T15:36:35.551Z,9.83
2023-03-26T15:39:59.652Z,9.57
2023-03-26T15:42:49.859Z,9.64
2023-03-26T15:45:19.902Z,9.53
2023-03-26T15:48:01.333Z,9.54
2023-03-26T15:50:39.768Z,9.56
2023-03-26T15:53:18.704Z,9.44
2023-03-26T15:55:54.880Z,9.02
2023-03-26T15:58:30.882Z,9.00
2023-03-26T16:01:36.862Z,9.08
2023-03-26T16:04:51.100Z,9.46
2023-03-26T16:07:47.300Z,9.01
2023-03-26T16:10:41.233Z,8.74
2023-03-26T16:13:20.758Z,8.38
2023-03-26T16:15:58.701Z,8.39
2023-03-26T16:18:38.364Z,8.58
2023-03-26T16:21:36.612Z,8.46
2023-03-26T16:24:03.803Z,7.82
2023-03-26T16:27:03.266Z,7.59
2023-03-26T16:29:31.438Z,7.68
2023-03-26T16:32:16.443Z,7.92
2023-03-26T16:34:55.215Z,7.57
2023-03-26T16:37:43.913Z,7.57
2023-03-26T16:40:23.606Z,7.40
2023-03-26T16:43:24.348Z,7.25
2023-03-26T16:46:15.091Z,7.12
2023-03-26T16:49:10.741Z,7.29
2023-03-26T16:51:56.567Z,7.21
2023-03-26T16:54:47.100Z,7.14
2023-03-26T16:57:52.892Z,7.28
2023-03-26T17:00:31.429Z,7.25
2023-03-26T17:03:27.091Z,6.90
2023-03-26T17:05:56.524Z,6.70
2023-03-26T17:09:01.530Z,6.67
2023-03-26T17:11:47.602Z,6.58
2023-03-26T17:14:26.123Z,6.50
2023-03-26T17:17:23.211Z,6.48
2023-03-26T17:20:11.270Z,6.51
2023-03-26T17:23:15.332Z,6.14
2023-03-26T17:25:52.657Z,6.07
2023-03-26T17:29:01.977Z,5.96
2023-03-26T17:31:51.152Z,5.85
2023-03-26T17:34:55.009Z,5.76
2023-03-26T17:37:22.164Z,5.84
2023-03-26T17:40:01.699Z,5.81
2023-03-26T17:42:33.932Z,5.61
2023-03-26T17:45:03.097Z,5.60
2023-03-26T17:47:49.789Z,5.67
2023-03-26T17:50:24.159Z,5.52
2023-03-26T17:53:02.123Z,5.31
2023-03-26T17:55:33.032Z,5.38
2023-03-26T17:58:06.782Z,5.37
2023-03-26T18:00:43.615Z,5.27
2023-03-26T18:03:20.219Z,5.23
2023-03-26T18:05:49.188Z,5.27
2023-03-26T18:08:25.655Z,5.45
2023-03-26T18:11:23.859Z,5.64
2023-03-26T18:13:50.988Z,5.77
2023-03-26T18:16:24.436Z,5.76
2023-03-26T18:18:59.169Z,5.86
2023-03-26T18:21:38.641Z,5.87
2023-03-26T18:24:12.163Z,5.79
2023-03-26T18:26:45.823Z,6.00
2023-03-26T18:29:22.341Z,5.84
2023-03-26T18:31:58.361Z,5.81
2023-03-26T18:34:29.284Z,5.78
2023-03-26T18:37:03.050Z,5.71
2023-03-26T18:39:30.305Z,5.57
2023-03-26T18:41:58.392Z,5.90
2023-03-26T18:44:26.240Z,5.81
2023-03-26T18:46:55.159Z,5.52
2023-03-26T18:49:25.641Z,5.41
2023-03-26T18:51:57.273Z,5.54
2023-03-26T18:54:30.094Z,5.51
2023-03-26T18:56:58.977Z,5.34
2023-03-26T18:59:28.308Z,5.57
2023-03-26T19:01:57.789Z,5.56
2023-03-26T19:04:27.632Z,5.21
2023-03-26T19:06:56.994Z,5.08
2023-03-26T19:09:31.628Z,5.18
2023-03-26T19:12:18.089Z,5.02
2023-03-26T19:15:16.165Z,4.82
2023-03-26T19:17:53.322Z,4.82
2023-03-26T19:20:27.560Z,4.77
2023-03-26T19:22:57.009Z,4.89
2023-03-26T19:25:31.661Z,5.07
2023-03-26T19:27:59.796Z,5.16
2023-03-26T19:30:32.994Z,5.33
2023-03-26T19:33:13.117Z,5.45
2023-03-26T19:35:46.870Z,5.50
2023-03-26T19:38:27.536Z,5.56
2023-03-26T19:40:58.461Z,5.49
2023-03-26T19:43:26.990Z,5.43
2023-03-26T19:45:59.702Z,5.58
2023-03-26T19:48:50.415Z,5.52
2023-03-26T19:51:21.597Z,5.67
2023-03-26T19:53:59.097Z,5.89
2023-03-26T19:56:29.441Z,6.07
2023-03-26T19:58:57.604Z,6.18
2023-03-26T20:01:30.208Z,6.23
2023-03-26T20:04:04.831Z,6.42
2023-03-26T20:06:42.408Z,6.10
2023-03-26T20:09:14.391Z,6.15
2023-03-26T20:11:42.096Z,6.15
2023-03-26T20:14:18.122Z,6.22
2023-03-26T20:16:46.256Z,6.22
2023-03-26T20:19:15.370Z,6.19
2023-03-26T20:21:43.466Z,6.23
2023-03-26T20:24:13.480Z,6.38
2023-03-26T20:26:40.865Z,6.19
2023-03-26T20:29:08.543Z,6.11
2023-03-26T20:31:36.245Z,6.28
2023-03-26T20:34:04.196Z,6.68
2023-03-26T20:36:34.310Z,6.66
2023-03-26T20:39:06.343Z,6.29
2023-03-26T20:41:35.425Z,6.44
2023-03-26T20:44:05.046Z,6.47
2023-03-26T20:46:33.297Z,6.56
2023-03-26T20:49:00.989Z,6.59
2023-03-26T20:51:28.976Z,6.47
2023-03-26T20:53:56.769Z,6.27
2023-03-26T20:56:24.056Z,6.47
2023-03-26T20:59:09.760Z,6.40
2023-03-26T21:01:38.659Z,6.26
2023-03-26T21:04:07.174Z,6.21
2023-03-26T21:06:34.540Z,6.09
2023-03-26T21:09:02.293Z,6.10
2023-03-26T21:11:38.412Z,5.92
2023-03-26T21:14:21.239Z,5.84
2023-03-26T21:16:48.789Z,5.77
2023-03-26T21:19:16.670Z,5.56
2023-03-26T21:21:57.642Z,5.21
2023-03-26T21:24:49.671Z,5.32
2023-03-26T21:27:36.125Z,5.47
2023-03-26T21:30:11.215Z,5.59
2023-03-26T21:32:39.284Z,5.64
2023-03-26T21:35:08.535Z,5.70
2023-03-26T21:37:37.663Z,5.68
2023-03-26T21:40:16.692Z,5.85
2023-03-26T21:42:46.804Z,5.92
2023-03-26T21:45:14.902Z,5.95
2023-03-26T21:47:42.484Z,6.05
2023-03-26T21:50:13.323Z,6.21
2023-03-26T21:52:47.254Z,6.37
2023-03-26T21:55:17.385Z,6.44
2023-03-26T21:58:06.267Z,6.42
2023-03-26T22:01:09.621Z,6.21
2023-03-26T22:04:07.994Z,6.20
2023-03-26T22:07:00.908Z,6.25
2023-03-26T22:12:02.165Z,5.82
2023-03-26T22:14:29.460Z,5.75
2023-03-26T22:16:57.232Z,5.80
2023-03-26T22:19:24.560Z,5.80
2023-03-26T22:21:52.097Z,5.84
2023-03-26T22:24:19.831Z,5.54
2023-03-26T22:26:47.847Z,5.86
2023-03-26T22:29:15.128Z,5.37
2023-03-26T22:31:43.054Z,5.58
2023-03-26T22:34:10.311Z,5.49
2023-03-26T22:36:40.238Z,5.84
2023-03-26T22:39:07.670Z,5.91
2023-03-26T22:41:35.259Z,5.65
2023-03-26T22:44:18.517Z,5.70
2023-03-26T22:46:51.427Z,5.63
2023-03-26T22:49:19.142Z,5.78
2023-03-26T22:51:46.951Z,5.58
2023-03-26T22:54:14.676Z,5.79
2023-03-26T22:56:43.645Z,5.65
2023-03-26T22:59:10.844Z,5.51
2023-03-26T23:01:38.337Z,5.57
2023-03-26T23:04:06.047Z,5.76
2023-03-26T23:06:33.653Z,5.43
2023-03-26T23:09:01.288Z,5.76
2023-03-26T23:11:30.656Z,5.83
2023-03-26T23:13:57.973Z,5.88
2023-03-26T23:16:26.555Z,5.84
2023-03-26T23:18:53.789Z,5.73
2023-03-26T23:21:22.468Z,5.83
2023-03-26T23:23:52.288Z,5.70
2023-03-26T23:26:20.124Z,5.58
2023-03-26T23:28:47.909Z,5.62
2023-03-26T23:31:15.465Z,5.62
2023-03-26T23:33:46.721Z,5.63
2023-03-26T23:36:18.386Z,5.64
2023-03-26T23:38:48.571Z,5.13
2023-03-26T23:41:19.423Z,5.40
2023-03-26T23:43:54.596Z,5.62
2023-03-26T23:46:25.771Z,5.38
2023-03-26T23:48:53.585Z,5.42
2023-03-26T23:51:22.452Z,4.91
2023-03-26T23:53:49.915Z,4.65
2023-03-26T23:56:17.867Z,4.53
2023-03-26T23:58:45.284Z,4.70
